Pagina principale
METAR-TAF:

METAR-TAF

Aeroporti :

Aeroporto di Firenze-Peretola

Firenze, Italia

latitudine: 43-48N, longitudine: 011-12E, altezza: 40 m

Osservazione

Il bollettino è stato emesso 20 minuti fa, alle 23:20 UTC
Vento 2 kt da direzioni variabili
Temperature 14°C
Umidità 88%
Pressione 1010 hPa
Visibilità 10 km o più
Nuvoloso ad un'altezza di 4000 ft

METAR: LIRQ 152320Z VRB02KT 9999 BKN040 14/12 Q1010

Ora: 01:40 (23:40 UTC)

Previsione

Il bollettino è stato emesso 40 minuti fa, alle 23:00 UTC
Previsione valida dal 16 alle 00 UTC al 16 alle 24 UTC
Vento 5 kt da direzioni variabili
Visibilità 10 km o più
Nubi sparse ad un'altezza di 4000 ft
Evoluzione graduale
dal 16 alle 08 UTC al 16 alle 10 UTC
Vento 10 kt da ovest/sud-ovest
Evoluzione graduale
dal 16 alle 16 UTC al 16 alle 18 UTC
Vento 5 kt da direzioni variabili

TAF: LIRQ 152300Z 1600/1624 VRB05KT 9999 SCT040 BECMG 1608/1610 25010KT BECMG 1616/1618 VRB05KT

Osservazioni e previsioni meteorologiche di più di 4000 aeroporti (messaggi METAR e TAF).

Le stazioni disponibili sono rappresentate dai dischi gialli e rossi sulla carta.

Puntare il mouse per vedere il nome della stazione.

Clicca sopra per visualizzare le osservazioni e previsioni meteorologiche.

Per cambiare la mappa : fare clic sui pulsanti verdi con una croce nera per ingrandire, il pulsante verde con un trattino per diminuire, o sulla freccia verde per le mappe adiacenti.


METAR-TAF: